sensor_id;sensor_type;location;lat;lon;timestamp;temperature;humidity
1355;DHT22;671;48.972;9.276;2022-08-27T00:02:19;20.80;99.90
1355;DHT22;671;48.972;9.276;2022-08-27T00:04:45;20.80;99.90
1355;DHT22;671;48.972;9.276;2022-08-27T00:07:12;20.80;99.90
1355;DHT22;671;48.972;9.276;2022-08-27T00:09:39;20.90;99.90
1355;DHT22;671;48.972;9.276;2022-08-27T00:12:06;20.80;99.90
1355;DHT22;671;48.972;9.276;2022-08-27T00:14:35;20.80;99.90
1355;DHT22;671;48.972;9.276;2022-08-27T00:17:03;20.80;99.90
1355;DHT22;671;48.972;9.276;2022-08-27T00:19:31;20.80;99.90
1355;DHT22;671;48.972;9.276;2022-08-27T00:21:57;20.80;99.90
1355;DHT22;671;48.972;9.276;2022-08-27T00:24:24;20.80;99.90
1355;DHT22;671;48.972;9.276;2022-08-27T00:26:50;20.80;99.90
1355;DHT22;671;48.972;9.276;2022-08-27T00:29:20;20.80;99.90
1355;DHT22;671;48.972;9.276;2022-08-27T00:31:46;20.80;99.90
1355;DHT22;671;48.972;9.276;2022-08-27T00:34:13;20.80;99.90
1355;DHT22;671;48.972;9.276;2022-08-27T00:36:40;20.80;99.90
1355;DHT22;671;48.972;9.276;2022-08-27T00:39:07;20.80;99.90
1355;DHT22;671;48.972;9.276;2022-08-27T00:41:33;20.90;99.90
1355;DHT22;671;48.972;9.276;2022-08-27T00:44:00;20.90;99.90
1355;DHT22;671;48.972;9.276;2022-08-27T00:46:35;20.90;99.90
1355;DHT22;671;48.972;9.276;2022-08-27T00:49:21;20.90;99.90
1355;DHT22;671;48.972;9.276;2022-08-27T00:51:56;21.00;99.90
1355;DHT22;671;48.972;9.276;2022-08-27T00:54:24;21.00;99.90
1355;DHT22;671;48.972;9.276;2022-08-27T00:56:52;21.00;99.90
1355;DHT22;671;48.972;9.276;2022-08-27T00:59:22;21.00;99.90
1355;DHT22;671;48.972;9.276;2022-08-27T01:01:49;21.00;99.90
1355;DHT22;671;48.972;9.276;2022-08-27T01:04:36;21.00;99.90
1355;DHT22;671;48.972;9.276;2022-08-27T01:07:03;21.00;99.90
1355;DHT22;671;48.972;9.276;2022-08-27T01:09:30;21.00;99.90
1355;DHT22;671;48.972;9.276;2022-08-27T01:11:57;21.00;99.90
1355;DHT22;671;48.972;9.276;2022-08-27T01:14:24;20.90;99.90
1355;DHT22;671;48.972;9.276;2022-08-27T01:16:56;20.90;99.90
1355;DHT22;671;48.972;9.276;2022-08-27T01:19:37;20.90;99.90
1355;DHT22;671;48.972;9.276;2022-08-27T01:25:11;20.90;99.90
1355;DHT22;671;48.972;9.276;2022-08-27T01:27:39;21.00;99.90
1355;DHT22;671;48.972;9.276;2022-08-27T01:30:07;21.00;99.90
1355;DHT22;671;48.972;9.276;2022-08-27T01:32:35;21.00;99.90
1355;DHT22;671;48.972;9.276;2022-08-27T01:35:05;21.10;99.90
1355;DHT22;671;48.972;9.276;2022-08-27T01:37:32;21.10;99.90
1355;DHT22;671;48.972;9.276;2022-08-27T01:40:00;21.10;99.90
1355;DHT22;671;48.972;9.276;2022-08-27T01:42:42;21.10;99.90
1355;DHT22;671;48.972;9.276;2022-08-27T01:45:16;21.00;99.90
1355;DHT22;671;48.972;9.276;2022-08-27T01:47:43;21.00;99.90
1355;DHT22;671;48.972;9.276;2022-08-27T01:50:17;21.00;99.90
1355;DHT22;671;48.972;9.276;2022-08-27T01:52:44;21.10;99.90
1355;DHT22;671;48.972;9.276;2022-08-27T01:55:15;21.20;99.90
1355;DHT22;671;48.972;9.276;2022-08-27T01:57:43;21.10;99.90
1355;DHT22;671;48.972;9.276;2022-08-27T02:00:16;21.10;99.90
1355;DHT22;671;48.972;9.276;2022-08-27T02:02:43;21.10;99.90
1355;DHT22;671;48.972;9.276;2022-08-27T02:05:11;21.10;99.90
1355;DHT22;671;48.972;9.276;2022-08-27T02:07:39;21.10;99.90
1355;DHT22;671;48.972;9.276;2022-08-27T02:10:08;21.00;99.90
1355;DHT22;671;48.972;9.276;2022-08-27T02:12:35;21.10;99.90
1355;DHT22;671;48.972;9.276;2022-08-27T02:15:03;21.10;99.90
1355;DHT22;671;48.972;9.276;2022-08-27T02:17:29;21.10;99.90
1355;DHT22;671;48.972;9.276;2022-08-27T02:19:56;21.10;99.90
1355;DHT22;671;48.972;9.276;2022-08-27T02:22:22;21.00;99.90
1355;DHT22;671;48.972;9.276;2022-08-27T02:24:49;21.00;99.90
1355;DHT22;671;48.972;9.276;2022-08-27T02:27:16;21.00;99.90
1355;DHT22;671;48.972;9.276;2022-08-27T02:29:43;21.00;99.90
1355;DHT22;671;48.972;9.276;2022-08-27T02:32:10;21.00;99.90
1355;DHT22;671;48.972;9.276;2022-08-27T02:34:36;20.90;99.90
1355;DHT22;671;48.972;9.276;2022-08-27T02:37:03;20.90;99.90
1355;DHT22;671;48.972;9.276;2022-08-27T02:39:29;20.90;99.90
1355;DHT22;671;48.972;9.276;2022-08-27T02:41:56;20.90;99.90
1355;DHT22;671;48.972;9.276;2022-08-27T02:44:22;20.90;99.90
1355;DHT22;671;48.972;9.276;2022-08-27T02:46:49;20.90;99.90
1355;DHT22;671;48.972;9.276;2022-08-27T02:49:16;20.90;99.90
1355;DHT22;671;48.972;9.276;2022-08-27T02:51:43;20.90;99.90
1355;DHT22;671;48.972;9.276;2022-08-27T02:54:10;21.00;99.90
1355;DHT22;671;48.972;9.276;2022-08-27T02:56:37;21.00;99.90
1355;DHT22;671;48.972;9.276;2022-08-27T02:59:04;21.00;99.90
1355;DHT22;671;48.972;9.276;2022-08-27T03:01:31;21.00;99.90
1355;DHT22;671;48.972;9.276;2022-08-27T03:03:57;20.90;99.90
1355;DHT22;671;48.972;9.276;2022-08-27T03:06:24;20.90;99.90
1355;DHT22;671;48.972;9.276;2022-08-27T03:08:50;20.90;99.90
1355;DHT22;671;48.972;9.276;2022-08-27T03:11:17;20.90;99.90
1355;DHT22;671;48.972;9.276;2022-08-27T03:13:43;20.80;99.90
1355;DHT22;671;48.972;9.276;2022-08-27T03:16:10;20.80;99.90
1355;DHT22;671;48.972;9.276;2022-08-27T03:18:36;20.80;99.90
1355;DHT22;671;48.972;9.276;2022-08-27T03:21:03;20.80;99.90
1355;DHT22;671;48.972;9.276;2022-08-27T03:23:31;20.80;99.90
1355;DHT22;671;48.972;9.276;2022-08-27T03:26:03;20.80;99.90
1355;DHT22;671;48.972;9.276;2022-08-27T03:28:32;20.80;99.90
1355;DHT22;671;48.972;9.276;2022-08-27T03:31:01;20.80;99.90
1355;DHT22;671;48.972;9.276;2022-08-27T03:33:31;20.80;99.90
1355;DHT22;671;48.972;9.276;2022-08-27T03:35:58;20.80;99.90
1355;DHT22;671;48.972;9.276;2022-08-27T03:38:25;20.80;99.90
1355;DHT22;671;48.972;9.276;2022-08-27T03:40:52;20.80;99.90
1355;DHT22;671;48.972;9.276;2022-08-27T03:43:20;20.70;99.90
1355;DHT22;671;48.972;9.276;2022-08-27T03:45:49;20.70;99.90
1355;DHT22;671;48.972;9.276;2022-08-27T03:48:16;20.70;99.90
1355;DHT22;671;48.972;9.276;2022-08-27T03:50:45;20.70;99.90
1355;DHT22;671;48.972;9.276;2022-08-27T03:53:14;20.60;99.90
1355;DHT22;671;48.972;9.276;2022-08-27T03:55:41;20.60;99.90
1355;DHT22;671;48.972;9.276;2022-08-27T03:58:11;20.60;99.90
1355;DHT22;671;48.972;9.276;2022-08-27T04:00:39;20.60;99.90
1355;DHT22;671;48.972;9.276;2022-08-27T04:03:06;20.60;99.90
1355;DHT22;671;48.972;9.276;2022-08-27T04:05:33;20.70;99.90
1355;DHT22;671;48.972;9.276;2022-08-27T04:08:00;20.60;99.90
1355;DHT22;671;48.972;9.276;2022-08-27T04:10:27;20.60;99.90
1355;DHT22;671;48.972;9.276;2022-08-27T04:12:54;20.60;99.90
1355;DHT22;671;48.972;9.276;2022-08-27T04:15:20;20.60;99.90
1355;DHT22;671;48.972;9.276;2022-08-27T04:17:47;20.60;99.90
1355;DHT22;671;48.972;9.276;2022-08-27T04:20:13;20.60;99.90
1355;DHT22;671;48.972;9.276;2022-08-27T04:22:39;20.50;99.90
1355;DHT22;671;48.972;9.276;2022-08-27T04:25:07;20.60;99.90
1355;DHT22;671;48.972;9.276;2022-08-27T04:27:34;20.60;99.90
1355;DHT22;671;48.972;9.276;2022-08-27T04:30:01;20.50;99.90
1355;DHT22;671;48.972;9.276;2022-08-27T04:32:28;20.50;99.90
1355;DHT22;671;48.972;9.276;2022-08-27T04:34:55;20.50;99.90
1355;DHT22;671;48.972;9.276;2022-08-27T04:37:23;20.50;99.90
1355;DHT22;671;48.972;9.276;2022-08-27T04:39:50;20.60;99.90
1355;DHT22;671;48.972;9.276;2022-08-27T04:42:18;20.50;99.90
1355;DHT22;671;48.972;9.276;2022-08-27T04:44:46;20.50;99.90
1355;DHT22;671;48.972;9.276;2022-08-27T04:47:13;20.60;99.90
1355;DHT22;671;48.972;9.276;2022-08-27T04:49:40;20.60;99.90
1355;DHT22;671;48.972;9.276;2022-08-27T04:52:07;20.60;99.90
1355;DHT22;671;48.972;9.276;2022-08-27T04:54:34;20.60;99.90
1355;DHT22;671;48.972;9.276;2022-08-27T04:57:02;20.60;99.90
1355;DHT22;671;48.972;9.276;2022-08-27T04:59:30;20.60;99.90
1355;DHT22;671;48.972;9.276;2022-08-27T05:01:58;20.50;99.90
1355;DHT22;671;48.972;9.276;2022-08-27T05:04:26;20.50;99.90
1355;DHT22;671;48.972;9.276;2022-08-27T05:06:55;20.50;99.90
1355;DHT22;671;48.972;9.276;2022-08-27T05:09:21;20.50;99.90
1355;DHT22;671;48.972;9.276;2022-08-27T05:11:48;20.60;99.90
1355;DHT22;671;48.972;9.276;2022-08-27T05:14:17;20.60;99.90
1355;DHT22;671;48.972;9.276;2022-08-27T05:16:45;20.60;99.90
1355;DHT22;671;48.972;9.276;2022-08-27T05:19:13;20.70;99.90
1355;DHT22;671;48.972;9.276;2022-08-27T05:21:45;20.70;99.90
1355;DHT22;671;48.972;9.276;2022-08-27T05:24:13;20.70;99.90
1355;DHT22;671;48.972;9.276;2022-08-27T05:26:40;20.80;99.90
1355;DHT22;671;48.972;9.276;2022-08-27T05:29:06;20.80;99.90
1355;DHT22;671;48.972;9.276;2022-08-27T05:31:33;20.90;99.90
1355;DHT22;671;48.972;9.276;2022-08-27T05:34:00;20.80;99.90
1355;DHT22;671;48.972;9.276;2022-08-27T05:36:28;20.80;99.90
1355;DHT22;671;48.972;9.276;2022-08-27T05:38:56;20.90;99.90
1355;DHT22;671;48.972;9.276;2022-08-27T05:41:26;20.80;99.90
1355;DHT22;671;48.972;9.276;2022-08-27T05:43:57;20.80;99.90
1355;DHT22;671;48.972;9.276;2022-08-27T05:46:25;20.80;99.90
1355;DHT22;671;48.972;9.276;2022-08-27T05:48:55;20.80;99.90
1355;DHT22;671;48.972;9.276;2022-08-27T05:51:29;20.90;99.90
1355;DHT22;671;48.972;9.276;2022-08-27T05:54:05;20.90;99.90
1355;DHT22;671;48.972;9.276;2022-08-27T05:56:35;20.90;99.90
1355;DHT22;671;48.972;9.276;2022-08-27T05:59:02;21.00;99.90
1355;DHT22;671;48.972;9.276;2022-08-27T06:01:49;21.00;99.90
1355;DHT22;671;48.972;9.276;2022-08-27T06:04:17;21.00;99.90
1355;DHT22;671;48.972;9.276;2022-08-27T06:06:44;21.10;99.90
1355;DHT22;671;48.972;9.276;2022-08-27T06:09:14;21.20;99.90
1355;DHT22;671;48.972;9.276;2022-08-27T06:11:42;21.20;99.90
1355;DHT22;671;48.972;9.276;2022-08-27T06:14:09;21.10;99.90
1355;DHT22;671;48.972;9.276;2022-08-27T06:16:37;21.20;99.90
1355;DHT22;671;48.972;9.276;2022-08-27T06:19:05;21.10;99.90
1355;DHT22;671;48.972;9.276;2022-08-27T06:21:33;21.10;99.90
1355;DHT22;671;48.972;9.276;2022-08-27T06:24:00;21.10;99.90
1355;DHT22;671;48.972;9.276;2022-08-27T06:26:26;21.20;99.90
1355;DHT22;671;48.972;9.276;2022-08-27T06:28:53;21.20;99.90
1355;DHT22;671;48.972;9.276;2022-08-27T06:31:25;21.20;99.90
1355;DHT22;671;48.972;9.276;2022-08-27T06:33:57;21.20;99.90
1355;DHT22;671;48.972;9.276;2022-08-27T06:36:24;21.20;99.90
1355;DHT22;671;48.972;9.276;2022-08-27T06:38:51;21.20;99.90
1355;DHT22;671;48.972;9.276;2022-08-27T06:41:21;21.20;99.90
1355;DHT22;671;48.972;9.276;2022-08-27T06:43:48;21.20;99.90
1355;DHT22;671;48.972;9.276;2022-08-27T06:46:17;21.20;99.90
1355;DHT22;671;48.972;9.276;2022-08-27T06:48:44;21.20;99.90
1355;DHT22;671;48.972;9.276;2022-08-27T06:51:18;21.20;99.90
1355;DHT22;671;48.972;9.276;2022-08-27T06:53:46;21.20;99.90
1355;DHT22;671;48.972;9.276;2022-08-27T06:56:13;21.20;99.90
1355;DHT22;671;48.972;9.276;2022-08-27T06:58:41;21.20;99.90
1355;DHT22;671;48.972;9.276;2022-08-27T07:01:16;21.30;99.90
1355;DHT22;671;48.972;9.276;2022-08-27T07:03:43;21.20;99.90
1355;DHT22;671;48.972;9.276;2022-08-27T07:06:12;21.20;99.90
1355;DHT22;671;48.972;9.276;2022-08-27T07:08:40;21.30;99.90
1355;DHT22;671;48.972;9.276;2022-08-27T07:11:09;21.30;99.90
1355;DHT22;671;48.972;9.276;2022-08-27T07:13:37;21.30;99.90
1355;DHT22;671;48.972;9.276;2022-08-27T07:16:09;21.40;99.90
1355;DHT22;671;48.972;9.276;2022-08-27T07:18:37;21.40;99.90
1355;DHT22;671;48.972;9.276;2022-08-27T07:21:05;21.40;99.90
1355;DHT22;671;48.972;9.276;2022-08-27T07:23:33;21.50;99.90
1355;DHT22;671;48.972;9.276;2022-08-27T07:25:59;21.60;99.90
1355;DHT22;671;48.972;9.276;2022-08-27T07:28:27;21.60;99.90
1355;DHT22;671;48.972;9.276;2022-08-27T07:30:54;21.50;99.90
1355;DHT22;671;48.972;9.276;2022-08-27T07:33:20;21.50;99.90
1355;DHT22;671;48.972;9.276;2022-08-27T07:35:46;21.50;99.90
1355;DHT22;671;48.972;9.276;2022-08-27T07:38:14;21.60;99.90
1355;DHT22;671;48.972;9.276;2022-08-27T07:40:41;21.60;99.90
1355;DHT22;671;48.972;9.276;2022-08-27T07:43:08;21.60;99.90
1355;DHT22;671;48.972;9.276;2022-08-27T07:45:53;21.60;99.90
1355;DHT22;671;48.972;9.276;2022-08-27T07:48:22;21.60;99.90
1355;DHT22;671;48.972;9.276;2022-08-27T07:50:49;21.60;99.90
1355;DHT22;671;48.972;9.276;2022-08-27T07:53:16;21.60;99.90
1355;DHT22;671;48.972;9.276;2022-08-27T07:55:43;21.60;99.90
1355;DHT22;671;48.972;9.276;2022-08-27T07:58:11;21.60;99.90
1355;DHT22;671;48.972;9.276;2022-08-27T08:00:42;21.70;99.90
1355;DHT22;671;48.972;9.276;2022-08-27T08:03:12;21.70;99.90
1355;DHT22;671;48.972;9.276;2022-08-27T08:05:42;21.70;99.90
1355;DHT22;671;48.972;9.276;2022-08-27T08:08:09;21.70;99.90
1355;DHT22;671;48.972;9.276;2022-08-27T08:10:37;21.70;99.90
1355;DHT22;671;48.972;9.276;2022-08-27T08:13:05;21.70;99.90
1355;DHT22;671;48.972;9.276;2022-08-27T08:15:32;21.70;99.90
1355;DHT22;671;48.972;9.276;2022-08-27T08:17:59;21.80;99.90
1355;DHT22;671;48.972;9.276;2022-08-27T08:20:26;21.80;99.90
1355;DHT22;671;48.972;9.276;2022-08-27T08:22:52;21.80;99.90
1355;DHT22;671;48.972;9.276;2022-08-27T08:25:19;21.90;99.90
1355;DHT22;671;48.972;9.276;2022-08-27T08:27:45;21.90;99.90
1355;DHT22;671;48.972;9.276;2022-08-27T08:30:13;22.00;99.90
1355;DHT22;671;48.972;9.276;2022-08-27T08:32:40;22.00;99.90
1355;DHT22;671;48.972;9.276;2022-08-27T08:35:10;22.00;99.90
1355;DHT22;671;48.972;9.276;2022-08-27T08:37:37;22.00;99.90
1355;DHT22;671;48.972;9.276;2022-08-27T08:40:05;22.00;99.90
1355;DHT22;671;48.972;9.276;2022-08-27T08:42:45;22.00;99.90
1355;DHT22;671;48.972;9.276;2022-08-27T08:45:18;22.20;99.90
1355;DHT22;671;48.972;9.276;2022-08-27T08:47:51;22.20;99.90
1355;DHT22;671;48.972;9.276;2022-08-27T08:50:23;22.30;99.90
1355;DHT22;671;48.972;9.276;2022-08-27T08:52:59;22.20;99.90
1355;DHT22;671;48.972;9.276;2022-08-27T09:01:06;22.10;99.90
1355;DHT22;671;48.972;9.276;2022-08-27T09:03:37;22.20;99.90
1355;DHT22;671;48.972;9.276;2022-08-27T09:12:00;22.30;99.90
1355;DHT22;671;48.972;9.276;2022-08-27T09:14:35;22.30;99.90
1355;DHT22;671;48.972;9.276;2022-08-27T09:17:04;22.40;99.90
1355;DHT22;671;48.972;9.276;2022-08-27T09:19:30;22.50;99.90
1355;DHT22;671;48.972;9.276;2022-08-27T09:22:10;22.50;99.90
1355;DHT22;671;48.972;9.276;2022-08-27T09:27:26;22.60;99.90
1355;DHT22;671;48.972;9.276;2022-08-27T09:29:55;22.60;99.90
1355;DHT22;671;48.972;9.276;2022-08-27T09:32:32;22.60;99.90
1355;DHT22;671;48.972;9.276;2022-08-27T09:35:03;22.60;99.90
1355;DHT22;671;48.972;9.276;2022-08-27T09:37:32;22.60;99.90
1355;DHT22;671;48.972;9.276;2022-08-27T09:40:30;22.60;99.90
1355;DHT22;671;48.972;9.276;2022-08-27T09:42:56;22.60;99.90
1355;DHT22;671;48.972;9.276;2022-08-27T09:45:28;22.50;99.90
1355;DHT22;671;48.972;9.276;2022-08-27T09:48:03;22.60;99.90
1355;DHT22;671;48.972;9.276;2022-08-27T09:50:40;22.70;99.90
1355;DHT22;671;48.972;9.276;2022-08-27T09:53:23;22.70;99.90
1355;DHT22;671;48.972;9.276;2022-08-27T09:55:57;22.80;99.90
1355;DHT22;671;48.972;9.276;2022-08-27T09:58:27;22.90;99.90
1355;DHT22;671;48.972;9.276;2022-08-27T10:01:01;23.10;99.90
1355;DHT22;671;48.972;9.276;2022-08-27T10:03:28;23.30;99.90
1355;DHT22;671;48.972;9.276;2022-08-27T10:05:55;23.30;99.90
1355;DHT22;671;48.972;9.276;2022-08-27T10:08:45;23.50;99.90
1355;DHT22;671;48.972;9.276;2022-08-27T10:11:22;23.70;99.90
1355;DHT22;671;48.972;9.276;2022-08-27T10:13:59;23.70;99.90
1355;DHT22;671;48.972;9.276;2022-08-27T10:19:51;23.90;99.90
1355;DHT22;671;48.972;9.276;2022-08-27T10:22:40;24.10;99.90
1355;DHT22;671;48.972;9.276;2022-08-27T10:30:24;24.40;99.90
1355;DHT22;671;48.972;9.276;2022-08-27T10:33:10;24.50;99.90
1355;DHT22;671;48.972;9.276;2022-08-27T10:36:24;24.50;99.90
1355;DHT22;671;48.972;9.276;2022-08-27T10:39:00;24.50;99.90
1355;DHT22;671;48.972;9.276;2022-08-27T10:41:39;24.50;99.90
1355;DHT22;671;48.972;9.276;2022-08-27T10:44:40;24.60;99.90
1355;DHT22;671;48.972;9.276;2022-08-27T10:52:41;24.50;99.90
1355;DHT22;671;48.972;9.276;2022-08-27T10:55:33;24.50;99.90
1355;DHT22;671;48.972;9.276;2022-08-27T11:00:59;24.80;99.90
1355;DHT22;671;48.972;9.276;2022-08-27T11:03:43;24.90;99.90
1355;DHT22;671;48.972;9.276;2022-08-27T11:09:05;25.00;99.90
1355;DHT22;671;48.972;9.276;2022-08-27T11:11:41;25.10;99.90
1355;DHT22;671;48.972;9.276;2022-08-27T11:14:18;25.00;99.90
1355;DHT22;671;48.972;9.276;2022-08-27T11:16:51;25.00;99.90
1355;DHT22;671;48.972;9.276;2022-08-27T11:20:20;24.70;99.90
1355;DHT22;671;48.972;9.276;2022-08-27T11:22:49;24.60;99.90
1355;DHT22;671;48.972;9.276;2022-08-27T11:28:12;24.60;99.90
1355;DHT22;671;48.972;9.276;2022-08-27T11:31:02;24.60;99.90
1355;DHT22;671;48.972;9.276;2022-08-27T11:33:46;24.80;99.90
1355;DHT22;671;48.972;9.276;2022-08-27T11:39:29;24.90;99.90
1355;DHT22;671;48.972;9.276;2022-08-27T11:42:08;25.00;99.90
1355;DHT22;671;48.972;9.276;2022-08-27T11:44:45;25.00;99.90
1355;DHT22;671;48.972;9.276;2022-08-27T11:47:23;25.00;99.90
1355;DHT22;671;48.972;9.276;2022-08-27T11:52:52;25.00;99.90
1355;DHT22;671;48.972;9.276;2022-08-27T11:57:42;24.80;99.90
1355;DHT22;671;48.972;9.276;2022-08-27T12:02:41;24.70;99.90
1355;DHT22;671;48.972;9.276;2022-08-27T12:05:19;24.70;99.90
1355;DHT22;671;48.972;9.276;2022-08-27T12:07:49;24.80;99.90
1355;DHT22;671;48.972;9.276;2022-08-27T12:10:28;24.70;99.90
1355;DHT22;671;48.972;9.276;2022-08-27T12:26:54;24.50;99.90
1355;DHT22;671;48.972;9.276;2022-08-27T12:35:15;24.40;99.90
1355;DHT22;671;48.972;9.276;2022-08-27T12:40:24;24.30;99.90
1355;DHT22;671;48.972;9.276;2022-08-27T12:43:03;24.40;99.90
1355;DHT22;671;48.972;9.276;2022-08-27T12:45:30;24.40;99.90
1355;DHT22;671;48.972;9.276;2022-08-27T12:47:57;24.50;99.90
1355;DHT22;671;48.972;9.276;2022-08-27T12:50:26;24.50;99.90
1355;DHT22;671;48.972;9.276;2022-08-27T12:53:05;24.60;99.90
1355;DHT22;671;48.972;9.276;2022-08-27T12:58:20;24.60;99.90
1355;DHT22;671;48.972;9.276;2022-08-27T13:03:54;24.70;99.90
1355;DHT22;671;48.972;9.276;2022-08-27T13:06:30;24.80;99.90
1355;DHT22;671;48.972;9.276;2022-08-27T13:09:01;24.80;99.90
1355;DHT22;671;48.972;9.276;2022-08-27T13:11:31;24.80;99.90
1355;DHT22;671;48.972;9.276;2022-08-27T13:14:09;24.80;99.90
1355;DHT22;671;48.972;9.276;2022-08-27T13:16:37;24.90;99.90
1355;DHT22;671;48.972;9.276;2022-08-27T13:19:21;25.00;99.90
1355;DHT22;671;48.972;9.276;2022-08-27T13:21:50;25.00;99.90
1355;DHT22;671;48.972;9.276;2022-08-27T13:24:27;25.10;99.90
1355;DHT22;671;48.972;9.276;2022-08-27T13:26:55;25.20;99.90
1355;DHT22;671;48.972;9.276;2022-08-27T13:29:24;25.30;99.90
1355;DHT22;671;48.972;9.276;2022-08-27T13:31:52;25.40;99.90
1355;DHT22;671;48.972;9.276;2022-08-27T13:34:24;25.50;99.90
1355;DHT22;671;48.972;9.276;2022-08-27T13:36:58;25.60;99.90
1355;DHT22;671;48.972;9.276;2022-08-27T13:39:26;25.80;99.90
1355;DHT22;671;48.972;9.276;2022-08-27T13:41:56;25.70;99.90
1355;DHT22;671;48.972;9.276;2022-08-27T13:44:29;25.70;99.90
1355;DHT22;671;48.972;9.276;2022-08-27T13:47:02;25.80;99.90
1355;DHT22;671;48.972;9.276;2022-08-27T13:49:31;25.80;99.90
1355;DHT22;671;48.972;9.276;2022-08-27T13:52:26;25.90;99.90
1355;DHT22;671;48.972;9.276;2022-08-27T13:57:26;25.90;99.90
1355;DHT22;671;48.972;9.276;2022-08-27T13:59:53;25.90;99.90
1355;DHT22;671;48.972;9.276;2022-08-27T14:02:25;25.90;99.90
1355;DHT22;671;48.972;9.276;2022-08-27T14:05:14;25.90;99.90
1355;DHT22;671;48.972;9.276;2022-08-27T14:07:45;25.70;99.90
1355;DHT22;671;48.972;9.276;2022-08-27T14:10:28;25.70;99.90
1355;DHT22;671;48.972;9.276;2022-08-27T14:12:58;25.60;99.90
1355;DHT22;671;48.972;9.276;2022-08-27T14:15:34;25.50;99.90
1355;DHT22;671;48.972;9.276;2022-08-27T14:18:05;25.40;99.90
1355;DHT22;671;48.972;9.276;2022-08-27T14:20:32;25.50;99.90
1355;DHT22;671;48.972;9.276;2022-08-27T14:22:59;25.40;99.90
1355;DHT22;671;48.972;9.276;2022-08-27T14:25:26;25.30;99.90
1355;DHT22;671;48.972;9.276;2022-08-27T14:27:53;25.30;99.90
1355;DHT22;671;48.972;9.276;2022-08-27T14:30:23;25.30;99.90
1355;DHT22;671;48.972;9.276;2022-08-27T14:32:51;25.30;99.90
1355;DHT22;671;48.972;9.276;2022-08-27T14:35:18;25.30;99.90
1355;DHT22;671;48.972;9.276;2022-08-27T14:37:45;25.40;99.90
1355;DHT22;671;48.972;9.276;2022-08-27T14:40:12;25.40;99.90
1355;DHT22;671;48.972;9.276;2022-08-27T14:42:39;25.50;99.90
1355;DHT22;671;48.972;9.276;2022-08-27T14:45:07;25.50;99.90
1355;DHT22;671;48.972;9.276;2022-08-27T14:47:36;25.40;99.90
1355;DHT22;671;48.972;9.276;2022-08-27T14:50:07;25.40;99.90
1355;DHT22;671;48.972;9.276;2022-08-27T14:52:35;25.30;99.90
1355;DHT22;671;48.972;9.276;2022-08-27T14:55:01;25.30;99.90
1355;DHT22;671;48.972;9.276;2022-08-27T14:57:28;25.20;99.90
1355;DHT22;671;48.972;9.276;2022-08-27T14:59:54;25.20;99.90
1355;DHT22;671;48.972;9.276;2022-08-27T15:02:21;25.10;99.90
1355;DHT22;671;48.972;9.276;2022-08-27T15:04:49;25.10;99.90
1355;DHT22;671;48.972;9.276;2022-08-27T15:07:15;25.00;99.90
1355;DHT22;671;48.972;9.276;2022-08-27T15:09:42;25.00;99.90
1355;DHT22;671;48.972;9.276;2022-08-27T15:12:08;24.90;99.90
1355;DHT22;671;48.972;9.276;2022-08-27T15:14:36;24.80;99.90
1355;DHT22;671;48.972;9.276;2022-08-27T15:17:04;24.80;99.90
1355;DHT22;671;48.972;9.276;2022-08-27T15:19:32;24.80;99.90
1355;DHT22;671;48.972;9.276;2022-08-27T15:22:17;24.90;99.90
1355;DHT22;671;48.972;9.276;2022-08-27T15:24:48;25.00;99.90
1355;DHT22;671;48.972;9.276;2022-08-27T15:27:15;25.10;99.90
1355;DHT22;671;48.972;9.276;2022-08-27T15:29:42;25.10;99.90
1355;DHT22;671;48.972;9.276;2022-08-27T15:34:53;25.10;99.90
1355;DHT22;671;48.972;9.276;2022-08-27T15:37:20;25.20;99.90
1355;DHT22;671;48.972;9.276;2022-08-27T15:39:47;25.20;99.90
1355;DHT22;671;48.972;9.276;2022-08-27T15:42:13;25.20;99.90
1355;DHT22;671;48.972;9.276;2022-08-27T15:44:53;25.20;99.90
1355;DHT22;671;48.972;9.276;2022-08-27T15:47:20;25.20;99.90
1355;DHT22;671;48.972;9.276;2022-08-27T15:49:47;25.10;99.90
1355;DHT22;671;48.972;9.276;2022-08-27T15:52:15;25.20;99.90
1355;DHT22;671;48.972;9.276;2022-08-27T15:54:43;25.20;99.90
1355;DHT22;671;48.972;9.276;2022-08-27T15:57:10;25.20;99.90
1355;DHT22;671;48.972;9.276;2022-08-27T15:59:36;25.20;99.90
1355;DHT22;671;48.972;9.276;2022-08-27T16:02:03;25.00;99.90
1355;DHT22;671;48.972;9.276;2022-08-27T16:04:30;25.00;99.90
1355;DHT22;671;48.972;9.276;2022-08-27T16:06:57;24.90;99.90
1355;DHT22;671;48.972;9.276;2022-08-27T16:09:23;24.90;99.90
1355;DHT22;671;48.972;9.276;2022-08-27T16:11:50;24.90;99.90
1355;DHT22;671;48.972;9.276;2022-08-27T16:14:16;24.80;99.90
1355;DHT22;671;48.972;9.276;2022-08-27T16:16:44;24.80;99.90
1355;DHT22;671;48.972;9.276;2022-08-27T16:19:12;24.70;99.90
1355;DHT22;671;48.972;9.276;2022-08-27T16:21:39;24.70;99.90
1355;DHT22;671;48.972;9.276;2022-08-27T16:24:06;24.60;99.90
1355;DHT22;671;48.972;9.276;2022-08-27T16:26:35;24.50;99.90
1355;DHT22;671;48.972;9.276;2022-08-27T16:29:02;24.40;99.90
1355;DHT22;671;48.972;9.276;2022-08-27T16:31:29;24.50;99.90
1355;DHT22;671;48.972;9.276;2022-08-27T16:33:58;24.40;99.90
1355;DHT22;671;48.972;9.276;2022-08-27T16:36:25;24.30;99.90
1355;DHT22;671;48.972;9.276;2022-08-27T16:38:51;24.30;99.90
1355;DHT22;671;48.972;9.276;2022-08-27T16:41:18;24.10;99.90
1355;DHT22;671;48.972;9.276;2022-08-27T16:43:44;24.10;99.90
1355;DHT22;671;48.972;9.276;2022-08-27T16:46:14;24.00;99.90
1355;DHT22;671;48.972;9.276;2022-08-27T16:48:40;23.90;99.90
1355;DHT22;671;48.972;9.276;2022-08-27T16:51:29;23.70;99.90
1355;DHT22;671;48.972;9.276;2022-08-27T16:53:56;23.70;99.90
1355;DHT22;671;48.972;9.276;2022-08-27T16:56:23;23.70;99.90
1355;DHT22;671;48.972;9.276;2022-08-27T16:58:49;23.70;99.90
1355;DHT22;671;48.972;9.276;2022-08-27T17:01:18;23.70;99.90
1355;DHT22;671;48.972;9.276;2022-08-27T17:03:48;23.60;99.90
1355;DHT22;671;48.972;9.276;2022-08-27T17:06:16;23.70;99.90
1355;DHT22;671;48.972;9.276;2022-08-27T17:08:43;23.60;99.90
1355;DHT22;671;48.972;9.276;2022-08-27T17:11:16;23.60;99.90
1355;DHT22;671;48.972;9.276;2022-08-27T17:13:47;23.60;99.90
1355;DHT22;671;48.972;9.276;2022-08-27T17:16:17;23.60;99.90
1355;DHT22;671;48.972;9.276;2022-08-27T17:18:45;23.50;99.90
1355;DHT22;671;48.972;9.276;2022-08-27T17:21:13;23.50;99.90
1355;DHT22;671;48.972;9.276;2022-08-27T17:23:45;23.50;99.90
1355;DHT22;671;48.972;9.276;2022-08-27T17:26:14;23.40;99.90
1355;DHT22;671;48.972;9.276;2022-08-27T17:28:42;23.40;99.90
1355;DHT22;671;48.972;9.276;2022-08-27T17:31:11;23.30;99.90
1355;DHT22;671;48.972;9.276;2022-08-27T17:33:42;23.30;99.90
1355;DHT22;671;48.972;9.276;2022-08-27T17:36:09;23.30;99.90
1355;DHT22;671;48.972;9.276;2022-08-27T17:38:37;23.30;99.90
1355;DHT22;671;48.972;9.276;2022-08-27T17:41:31;23.30;99.90
1355;DHT22;671;48.972;9.276;2022-08-27T17:44:00;23.20;99.90
1355;DHT22;671;48.972;9.276;2022-08-27T17:46:27;23.20;99.90
1355;DHT22;671;48.972;9.276;2022-08-27T17:48:54;23.20;99.90
1355;DHT22;671;48.972;9.276;2022-08-27T17:51:20;23.20;99.90
1355;DHT22;671;48.972;9.276;2022-08-27T17:53:52;23.20;99.90
1355;DHT22;671;48.972;9.276;2022-08-27T17:56:21;23.10;99.90
1355;DHT22;671;48.972;9.276;2022-08-27T17:58:50;22.90;99.90
1355;DHT22;671;48.972;9.276;2022-08-27T18:01:21;22.80;99.90